createdAt,value
2019-05-20T00:00:25.813Z,23.93
2019-05-20T00:03:30.004Z,21.87
2019-05-20T00:06:33.937Z,18.23
2019-05-20T00:09:38.768Z,18.80
2019-05-20T00:12:42.887Z,15.80
2019-05-20T00:15:47.005Z,13.83
2019-05-20T00:18:51.287Z,15.27
2019-05-20T00:21:55.844Z,15.87
2019-05-20T00:25:00.279Z,13.67
2019-05-20T00:28:04.499Z,16.43
2019-05-20T00:31:08.824Z,15.10
2019-05-20T00:34:13.268Z,13.80
2019-05-20T00:37:17.562Z,20.33
2019-05-20T00:40:22.321Z,15.07
2019-05-20T00:43:27.320Z,14.00
2019-05-20T00:46:31.385Z,11.60
2019-05-20T00:49:35.290Z,15.77
2019-05-20T00:52:39.691Z,14.63
2019-05-20T00:55:43.689Z,13.03
2019-05-20T00:58:48.238Z,20.07
2019-05-20T01:01:53.303Z,13.63
2019-05-20T01:04:57.565Z,18.50
2019-05-20T01:08:01.507Z,15.97
2019-05-20T01:11:05.674Z,15.67
2019-05-20T01:14:10.261Z,17.70
2019-05-20T01:17:14.347Z,16.83
2019-05-20T01:20:18.819Z,16.57
2019-05-20T01:23:22.983Z,14.00
2019-05-20T01:26:27.427Z,16.67
2019-05-20T01:29:31.285Z,15.10
2019-05-20T01:32:35.936Z,13.67
2019-05-20T01:35:40.098Z,18.90
2019-05-20T01:38:44.215Z,15.03
2019-05-20T01:41:49.194Z,15.23
2019-05-20T01:44:53.488Z,18.87
2019-05-20T01:47:58.379Z,17.20
2019-05-20T01:51:02.610Z,15.50
2019-05-20T01:54:07.174Z,14.73
2019-05-20T01:57:11.409Z,15.83
2019-05-20T02:00:16.192Z,17.73
2019-05-20T02:03:31.251Z,19.80
2019-05-20T02:06:27.131Z,14.30
2019-05-20T02:09:31.249Z,16.03
2019-05-20T02:12:35.875Z,14.37
2019-05-20T02:15:55.453Z,12.00
2019-05-20T02:19:00.083Z,14.77
2019-05-20T02:22:04.101Z,14.43
2019-05-20T02:25:08.111Z,15.23
2019-05-20T02:28:12.556Z,14.63
2019-05-20T02:31:16.593Z,16.17
2019-05-20T02:34:20.511Z,13.67
2019-05-20T02:37:25.102Z,11.80
2019-05-20T02:40:29.328Z,12.53
2019-05-20T02:43:33.533Z,14.73
2019-05-20T02:46:37.532Z,16.07
2019-05-20T02:49:41.998Z,16.93
2019-05-20T02:52:46.608Z,13.33
2019-05-20T02:55:50.859Z,15.03
2019-05-20T02:58:54.971Z,14.40
2019-05-20T03:01:59.169Z,12.37
2019-05-20T03:05:03.029Z,16.13
2019-05-20T03:08:07.391Z,19.67
2019-05-20T03:11:11.625Z,29.33
2019-05-20T03:14:15.948Z,29.33
2019-05-20T03:17:20.486Z,41.10
2019-05-20T03:20:24.492Z,45.57
2019-05-20T03:23:28.501Z,39.70
2019-05-20T03:26:32.428Z,40.37
2019-05-20T03:29:36.890Z,36.03
2019-05-20T03:32:41.645Z,38.37
2019-05-20T03:35:45.809Z,33.20
2019-05-20T03:38:50.230Z,28.33
2019-05-20T03:41:54.974Z,27.33
2019-05-20T03:44:59.315Z,39.37
2019-05-20T03:48:03.909Z,41.57
2019-05-20T03:51:08.850Z,35.60
2019-05-20T03:54:13.276Z,37.37
2019-05-20T03:57:17.203Z,33.20
2019-05-20T04:00:37.661Z,30.63
2019-05-20T04:03:42.144Z,29.80
2019-05-20T04:06:46.757Z,25.53
2019-05-20T04:09:50.867Z,25.17
2019-05-20T04:12:55.304Z,25.37
2019-05-20T04:16:00.548Z,27.07
2019-05-20T04:19:04.795Z,21.23
2019-05-20T04:22:08.963Z,24.77
2019-05-20T04:25:13.151Z,32.13
2019-05-20T04:28:17.628Z,37.53
2019-05-20T04:31:21.631Z,36.20
2019-05-20T04:34:25.717Z,28.60
2019-05-20T04:37:30.140Z,35.83
2019-05-20T04:40:34.141Z,29.17
2019-05-20T04:43:38.615Z,39.73
2019-05-20T04:46:43.613Z,30.53
2019-05-20T04:49:48.199Z,29.20
2019-05-20T04:52:52.864Z,28.03
2019-05-20T04:55:57.685Z,25.07
2019-05-20T04:59:01.919Z,24.10
2019-05-20T05:02:06.238Z,23.43
2019-05-20T05:05:10.615Z,21.80
2019-05-20T05:08:14.717Z,24.60
2019-05-20T05:11:19.273Z,23.27
2019-05-20T05:14:23.205Z,23.43
2019-05-20T05:17:27.254Z,23.63
2019-05-20T05:20:31.979Z,24.10
2019-05-20T05:23:36.550Z,21.43
2019-05-20T05:26:40.803Z,23.60
2019-05-20T05:29:45.058Z,21.07
2019-05-20T05:32:49.293Z,20.77
2019-05-20T05:35:53.963Z,17.23
2019-05-20T05:38:58.624Z,23.07
2019-05-20T05:42:03.433Z,20.10
2019-05-20T05:45:08.473Z,17.77
2019-05-20T05:48:12.327Z,22.87
2019-05-20T05:51:16.587Z,18.23
2019-05-20T05:54:20.978Z,18.03
2019-05-20T05:57:25.776Z,17.30
2019-05-20T06:00:29.955Z,22.93
2019-05-20T06:03:34.180Z,18.20
2019-05-20T06:06:38.442Z,16.33
2019-05-20T06:09:42.363Z,15.27
2019-05-20T06:12:46.841Z,19.20
2019-05-20T06:15:50.768Z,16.40
2019-05-20T06:18:55.113Z,15.53
2019-05-20T06:21:59.033Z,16.10
2019-05-20T06:25:03.680Z,19.87
2019-05-20T06:28:07.664Z,15.83
2019-05-20T06:31:11.687Z,12.70
2019-05-20T06:34:15.663Z,16.57
2019-05-20T06:37:21.590Z,16.33
2019-05-20T06:40:25.605Z,15.47
2019-05-20T06:43:30.119Z,16.07
2019-05-20T06:46:34.352Z,18.27
2019-05-20T06:49:38.813Z,19.97
2019-05-20T06:52:42.839Z,14.97
2019-05-20T06:55:47.173Z,18.00
2019-05-20T06:58:51.277Z,17.40
2019-05-20T07:01:56.112Z,16.47
2019-05-20T07:05:00.637Z,15.83
2019-05-20T07:08:05.057Z,16.87
2019-05-20T07:11:09.690Z,18.10
2019-05-20T07:14:14.444Z,16.93
2019-05-20T07:17:18.753Z,18.40
2019-05-20T07:20:23.066Z,14.80
2019-05-20T07:23:27.388Z,13.77
2019-05-20T07:26:31.670Z,15.53
2019-05-20T07:29:36.167Z,14.80
2019-05-20T07:32:40.385Z,14.23
2019-05-20T07:35:44.782Z,15.73
2019-05-20T07:38:49.053Z,17.47
2019-05-20T07:41:53.317Z,15.37
2019-05-20T07:44:57.775Z,14.20
2019-05-20T07:48:02.423Z,15.20
2019-05-20T07:51:07.678Z,13.73
2019-05-20T07:54:13.238Z,14.30
2019-05-20T07:57:20.642Z,14.03
2019-05-20T08:00:24.694Z,10.07
2019-05-20T08:03:28.725Z,11.73
2019-05-20T08:06:32.820Z,13.00
2019-05-20T08:09:44.653Z,12.67
2019-05-20T08:12:42.818Z,10.87
2019-05-20T08:15:46.729Z,12.03
2019-05-20T08:18:51.045Z,14.33
2019-05-20T08:21:55.285Z,11.87
2019-05-20T08:24:59.276Z,12.37
2019-05-20T08:28:03.544Z,11.23
2019-05-20T08:31:07.775Z,10.73
2019-05-20T08:34:12.032Z,11.40
2019-05-20T08:37:16.559Z,11.90
2019-05-20T08:40:20.692Z,11.77
2019-05-20T08:43:25.000Z,11.60
2019-05-20T08:46:29.929Z,10.30
2019-05-20T08:49:34.688Z,11.43
2019-05-20T08:52:39.358Z,13.23
2019-05-20T08:55:43.592Z,15.47
2019-05-20T08:58:47.739Z,12.57
2019-05-20T09:01:52.060Z,12.43
2019-05-20T09:04:56.594Z,14.20
2019-05-20T09:08:03.427Z,12.23
2019-05-20T09:11:06.343Z,13.33
2019-05-20T09:14:10.713Z,14.20
2019-05-20T09:17:15.001Z,13.67
2019-05-20T09:20:19.746Z,11.37
2019-05-20T09:23:24.090Z,12.77
2019-05-20T09:26:28.488Z,15.33
2019-05-20T09:29:32.656Z,11.30
2019-05-20T09:32:37.242Z,13.73
2019-05-20T09:35:42.009Z,11.97
2019-05-20T09:38:46.286Z,10.10
2019-05-20T09:41:50.525Z,13.03
2019-05-20T09:44:55.264Z,12.70
2019-05-20T09:47:59.485Z,12.77
2019-05-20T09:51:03.743Z,12.60
2019-05-20T09:54:08.008Z,12.90
2019-05-20T09:57:12.434Z,11.70
2019-05-20T10:00:16.927Z,13.87
2019-05-20T10:03:21.488Z,12.57
2019-05-20T10:06:26.059Z,12.87
2019-05-20T10:09:30.338Z,17.07
2019-05-20T10:12:45.262Z,13.60
2019-05-20T10:15:39.910Z,15.50
2019-05-20T10:18:43.913Z,13.07
2019-05-20T10:21:47.900Z,19.87
2019-05-20T10:24:51.831Z,13.97
2019-05-20T10:27:57.759Z,16.80
2019-05-20T10:31:02.030Z,15.47
2019-05-20T10:34:06.140Z,16.23
2019-05-20T10:37:10.142Z,14.37
2019-05-20T10:40:14.693Z,16.47
2019-05-20T10:43:19.236Z,15.60
2019-05-20T10:46:23.340Z,17.40
2019-05-20T10:49:27.447Z,17.40
2019-05-20T10:52:31.605Z,16.83
2019-05-20T10:55:36.018Z,21.93
2019-05-20T10:58:40.111Z,21.57
2019-05-20T11:01:44.389Z,19.67
2019-05-20T11:04:48.496Z,19.77
2019-05-20T11:07:53.328Z,20.53
2019-05-20T11:10:57.160Z,20.27
2019-05-20T11:14:01.309Z,20.17
2019-05-20T11:17:05.234Z,21.23
2019-05-20T11:20:09.722Z,23.17
2019-05-20T11:23:14.226Z,22.13
2019-05-20T11:26:18.959Z,22.43
2019-05-20T11:29:23.156Z,22.40
2019-05-20T11:32:27.181Z,24.30
2019-05-20T11:35:31.128Z,26.80
2019-05-20T11:38:35.129Z,31.67
2019-05-20T11:41:52.928Z,27.63
2019-05-20T11:44:45.075Z,34.97
2019-05-20T11:47:49.274Z,38.60
2019-05-20T11:50:53.283Z,38.47
2019-05-20T11:53:57.137Z,39.37
2019-05-20T11:57:01.555Z,39.70
2019-05-20T12:00:06.185Z,41.87
2019-05-20T12:03:10.845Z,42.37
2019-05-20T12:06:14.804Z,44.13
2019-05-20T12:09:18.734Z,45.93
2019-05-20T12:12:23.361Z,42.53
2019-05-20T12:15:27.624Z,47.97
2019-05-20T12:18:32.335Z,44.03
2019-05-20T12:21:36.665Z,42.07
2019-05-20T12:24:41.363Z,44.63
2019-05-20T12:27:45.842Z,40.53
2019-05-20T12:30:50.104Z,40.73
2019-05-20T12:33:54.049Z,43.43
2019-05-20T12:36:58.019Z,39.20
2019-05-20T12:40:07.605Z,42.23
2019-05-20T12:43:08.225Z,40.10
2019-05-20T12:46:12.157Z,35.47
2019-05-20T12:49:16.313Z,37.47
2019-05-20T12:52:20.622Z,33.20
2019-05-20T12:55:24.655Z,34.43
2019-05-20T12:58:28.986Z,30.47
2019-05-20T13:01:33.082Z,29.00
2019-05-20T13:04:37.496Z,27.77
2019-05-20T13:07:41.797Z,28.00
2019-05-20T13:10:46.507Z,27.83
2019-05-20T13:13:50.793Z,27.43
2019-05-20T13:16:54.645Z,24.80
2019-05-20T13:19:58.856Z,24.50
2019-05-20T13:23:06.153Z,25.37
2019-05-20T13:26:09.869Z,29.33
2019-05-20T13:29:14.312Z,28.03
2019-05-20T13:32:18.508Z,29.43
2019-05-20T13:35:22.730Z,29.17
2019-05-20T13:38:26.659Z,30.83
2019-05-20T13:41:31.577Z,28.03
2019-05-20T13:44:36.129Z,29.47
2019-05-20T13:47:40.862Z,26.23
2019-05-20T13:50:45.116Z,26.20
2019-05-20T13:53:49.461Z,26.40
2019-05-20T13:56:53.868Z,29.23
2019-05-20T13:59:58.026Z,29.10
2019-05-20T14:03:02.011Z,25.97
2019-05-20T14:06:06.121Z,28.30
2019-05-20T14:09:10.685Z,28.73
2019-05-20T14:12:14.957Z,27.60
2019-05-20T14:15:19.353Z,34.17
2019-05-20T14:18:23.875Z,34.90
2019-05-20T14:21:28.188Z,37.03
2019-05-20T14:24:32.317Z,38.13
2019-05-20T14:27:36.319Z,46.20
2019-05-20T14:30:40.629Z,41.13
2019-05-20T14:33:45.146Z,42.50
2019-05-20T14:36:52.692Z,45.23
2019-05-20T14:39:54.934Z,48.23
2019-05-20T14:42:58.992Z,46.97
2019-05-20T14:46:03.697Z,50.10
2019-05-20T14:49:08.213Z,50.77
2019-05-20T14:52:12.434Z,43.73
2019-05-20T14:55:16.463Z,42.10
2019-05-20T14:58:20.479Z,46.53
2019-05-20T15:01:24.950Z,47.27
2019-05-20T15:04:29.087Z,52.80
2019-05-20T15:07:33.041Z,59.00
2019-05-20T15:10:37.293Z,50.60
2019-05-20T15:13:41.998Z,50.73
2019-05-20T15:16:46.262Z,53.57
2019-05-20T15:19:50.911Z,56.47
2019-05-20T15:22:55.399Z,52.77
2019-05-20T15:25:59.680Z,56.10
2019-05-20T15:29:04.561Z,60.77
2019-05-20T15:32:09.310Z,59.87
2019-05-20T15:35:13.443Z,61.90
2019-05-20T15:38:18.813Z,60.03
2019-05-20T15:41:23.205Z,60.67
2019-05-20T15:44:27.665Z,62.40
2019-05-20T15:47:32.493Z,68.10
2019-05-20T15:50:36.739Z,83.90
2019-05-20T15:53:41.038Z,66.90
2019-05-20T15:56:45.703Z,71.53
2019-05-20T15:59:49.894Z,70.43
2019-05-20T16:02:53.916Z,70.60
2019-05-20T16:06:00.018Z,74.93
2019-05-20T16:09:05.198Z,66.47
2019-05-20T16:12:09.695Z,73.03
2019-05-20T16:15:14.107Z,74.03
2019-05-20T16:18:18.642Z,70.73
2019-05-20T16:21:23.339Z,73.13
2019-05-20T16:24:27.289Z,68.50
2019-05-20T16:27:32.830Z,65.40
2019-05-20T16:30:37.028Z,74.23
2019-05-20T16:33:41.423Z,74.17
2019-05-20T16:36:45.757Z,73.57
2019-05-20T16:39:50.581Z,78.13
2019-05-20T16:42:54.846Z,79.10
2019-05-20T16:45:58.863Z,72.63
2019-05-20T16:49:03.113Z,74.77
2019-05-20T16:52:07.106Z,82.50
2019-05-20T16:55:11.355Z,86.00
2019-05-20T16:58:15.600Z,89.40
2019-05-20T17:01:19.802Z,86.70
2019-05-20T17:04:23.929Z,86.10
2019-05-20T17:07:28.024Z,83.93
2019-05-20T17:10:31.903Z,88.03
2019-05-20T17:13:36.170Z,78.77
2019-05-20T17:16:40.326Z,77.20
2019-05-20T17:19:44.726Z,80.57
2019-05-20T17:22:49.049Z,82.23
2019-05-20T17:25:53.520Z,85.63
2019-05-20T17:28:58.100Z,90.73
2019-05-20T17:32:02.333Z,88.37
2019-05-20T17:35:06.667Z,100.67
2019-05-20T17:38:10.997Z,92.00
2019-05-20T17:41:15.208Z,94.60
2019-05-20T17:44:20.032Z,77.17
2019-05-20T17:47:25.025Z,81.27
2019-05-20T17:50:29.034Z,87.00
2019-05-20T17:53:33.935Z,78.30
2019-05-20T17:56:37.997Z,84.23
2019-05-20T17:59:42.369Z,86.27
2019-05-20T18:02:47.029Z,88.43
2019-05-20T18:05:51.338Z,90.77
2019-05-20T18:08:57.002Z,100.93
2019-05-20T18:12:01.293Z,98.77
2019-05-20T18:15:05.862Z,94.37
2019-05-20T18:18:10.720Z,99.67
2019-05-20T18:21:15.285Z,87.93
2019-05-20T18:24:19.571Z,105.13
2019-05-20T18:27:23.677Z,98.20
2019-05-20T18:30:28.067Z,95.13
2019-05-20T18:33:32.592Z,96.73
2019-05-20T18:36:36.510Z,96.33
2019-05-20T18:39:40.697Z,98.63
2019-05-20T18:42:45.341Z,105.23
2019-05-20T18:45:50.185Z,106.57
2019-05-20T18:48:54.399Z,95.97
2019-05-20T18:51:59.028Z,97.50
2019-05-20T18:55:03.367Z,103.57
2019-05-20T18:58:07.566Z,109.43
2019-05-20T19:01:11.580Z,105.03
2019-05-20T19:04:15.607Z,106.90
2019-05-20T19:07:19.959Z,103.97
2019-05-20T19:10:24.832Z,103.80
2019-05-20T19:13:29.131Z,109.53
2019-05-20T19:16:33.552Z,107.27
2019-05-20T19:19:37.677Z,101.37
2019-05-20T19:22:42.022Z,102.20
2019-05-20T19:25:46.399Z,119.20
2019-05-20T19:28:50.693Z,120.90
2019-05-20T19:32:01.851Z,111.60
2019-05-20T19:35:01.411Z,105.07
2019-05-20T19:38:05.416Z,105.00
2019-05-20T19:41:10.317Z,96.63
2019-05-20T19:44:14.354Z,107.00
2019-05-20T19:47:18.351Z,104.13
2019-05-20T19:50:22.701Z,98.40
2019-05-20T19:53:26.994Z,93.37
2019-05-20T19:56:31.182Z,97.07
2019-05-20T19:59:35.190Z,90.17
2019-05-20T20:02:39.420Z,103.60
2019-05-20T20:05:43.361Z,92.33
2019-05-20T20:08:47.619Z,88.00
2019-05-20T20:11:51.629Z,93.87
2019-05-20T20:14:55.496Z,95.93
2019-05-20T20:18:00.210Z,92.03
2019-05-20T20:21:04.628Z,92.07
2019-05-20T20:24:09.488Z,83.70
2019-05-20T20:27:13.535Z,89.33
2019-05-20T20:30:18.085Z,88.57
2019-05-20T20:33:21.941Z,92.03
2019-05-20T20:36:25.885Z,96.73
2019-05-20T20:39:29.881Z,85.90
2019-05-20T20:42:34.086Z,87.93
2019-05-20T20:45:38.349Z,88.20
2019-05-20T20:48:42.489Z,97.73
2019-05-20T20:51:46.426Z,94.47
2019-05-20T20:54:51.262Z,91.93
2019-05-20T20:57:56.043Z,100.53
2019-05-20T21:01:01.008Z,93.47
2019-05-20T21:04:05.213Z,95.37
2019-05-20T21:07:09.836Z,94.93
2019-05-20T21:10:14.155Z,100.30
2019-05-20T21:13:19.254Z,89.83
2019-05-20T21:16:23.181Z,94.40
2019-05-20T21:19:28.396Z,91.50
2019-05-20T21:22:32.269Z,97.10
2019-05-20T21:25:37.360Z,92.97
2019-05-20T21:28:41.582Z,91.70
2019-05-20T21:31:45.814Z,93.57
2019-05-20T21:34:50.346Z,95.67
2019-05-20T21:37:54.929Z,96.03
2019-05-20T21:40:59.070Z,91.23
2019-05-20T21:44:03.374Z,88.83
2019-05-20T21:47:08.358Z,81.50
2019-05-20T21:50:30.480Z,81.90
2019-05-20T21:53:34.817Z,88.73
2019-05-20T21:56:39.088Z,89.00
2019-05-20T21:59:43.196Z,88.63
2019-05-20T22:02:47.713Z,89.80
2019-05-20T22:05:52.459Z,88.70
2019-05-20T22:08:56.788Z,89.50
2019-05-20T22:12:01.462Z,76.47
2019-05-20T22:15:05.665Z,82.17
2019-05-20T22:18:09.835Z,83.33
2019-05-20T22:21:15.703Z,86.07
2019-05-20T22:24:19.924Z,89.17
2019-05-20T22:27:24.139Z,91.93
2019-05-20T22:30:28.259Z,94.43
2019-05-20T22:33:40.880Z,88.53
2019-05-20T22:36:38.226Z,73.23
2019-05-20T22:39:42.780Z,84.83
2019-05-20T22:42:47.393Z,88.87
2019-05-20T22:45:51.796Z,84.73
2019-05-20T22:48:56.249Z,81.40
2019-05-20T22:52:00.265Z,74.03
2019-05-20T22:55:04.785Z,81.63
2019-05-20T22:58:08.960Z,82.57
2019-05-20T23:01:13.202Z,84.17
2019-05-20T23:04:17.625Z,72.33
2019-05-20T23:07:21.829Z,72.53
2019-05-20T23:10:25.753Z,82.10
2019-05-20T23:13:30.349Z,68.70
2019-05-20T23:16:34.365Z,78.03
2019-05-20T23:19:39.363Z,73.63
2019-05-20T23:22:44.006Z,82.33
2019-05-20T23:25:48.365Z,77.70
2019-05-20T23:28:52.487Z,82.37
2019-05-20T23:31:56.750Z,72.20
2019-05-20T23:35:01.451Z,72.63
2019-05-20T23:38:05.650Z,74.00
2019-05-20T23:41:09.597Z,79.50
2019-05-20T23:44:13.937Z,71.60
2019-05-20T23:47:18.084Z,73.33
2019-05-20T23:50:22.340Z,71.00
2019-05-20T23:53:26.817Z,65.70
2019-05-20T23:56:31.476Z,57.67
2019-05-20T23:59:35.374Z,66.43
